createdAt,value
2018-12-27T00:00:46.837Z,99592.56
2018-12-27T00:03:15.089Z,99600.84
2018-12-27T00:05:43.422Z,99594.02
2018-12-27T00:08:11.778Z,99600.92
2018-12-27T00:10:40.069Z,99597.34
2018-12-27T00:13:08.378Z,99583.22
2018-12-27T00:15:37.055Z,99595.91
2018-12-27T00:18:05.396Z,99598.84
2018-12-27T00:20:33.713Z,99595.34
2018-12-27T00:23:02.057Z,99597.08
2018-12-27T00:25:30.368Z,99607.56
2018-12-27T00:27:58.768Z,99618.84
2018-12-27T00:30:27.333Z,99614.42
2018-12-27T00:33:02.929Z,99606.91
2018-12-27T00:35:26.365Z,99611.38
2018-12-27T00:37:54.943Z,99613.13
2018-12-27T00:40:23.838Z,99602.86
2018-12-27T00:42:52.408Z,99604.27
2018-12-27T00:45:20.995Z,99599.34
2018-12-27T00:47:49.560Z,99601.16
2018-12-27T00:50:18.148Z,99593.61
2018-12-27T00:52:46.839Z,99598.95
2018-12-27T00:55:15.772Z,99593.32
2018-12-27T00:57:44.337Z,99601.09
2018-12-27T01:00:12.923Z,99601.16
2018-12-27T01:02:41.493Z,99608.40
2018-12-27T01:05:10.073Z,99606.84
2018-12-27T01:07:38.639Z,99602.96
2018-12-27T01:10:07.899Z,99598.20
2018-12-27T01:12:36.470Z,99607.81
2018-12-27T01:15:05.058Z,99602.73
2018-12-27T01:17:34.273Z,99594.50
2018-12-27T01:20:02.860Z,99604.37
2018-12-27T01:22:31.509Z,99605.12
2018-12-27T01:25:00.154Z,99601.93
2018-12-27T01:27:28.790Z,99598.66
2018-12-27T01:29:57.719Z,99595.14
2018-12-27T01:32:26.432Z,99599.95
2018-12-27T01:34:55.012Z,99596.84
2018-12-27T01:37:23.573Z,99594.63
2018-12-27T01:39:52.157Z,99597.41
2018-12-27T01:42:20.717Z,99596.40
2018-12-27T01:44:50.945Z,99599.03
2018-12-27T01:47:19.508Z,99591.98
2018-12-27T01:49:48.241Z,99591.73
2018-12-27T01:52:16.814Z,99596.45
2018-12-27T01:54:45.388Z,99594.03
2018-12-27T01:57:15.009Z,99591.98
2018-12-27T01:59:43.930Z,99585.69
2018-12-27T02:02:13.194Z,99585.00
2018-12-27T02:04:42.132Z,99586.33
2018-12-27T02:07:10.698Z,99586.33
2018-12-27T02:09:39.290Z,99580.10
2018-12-27T02:12:07.948Z,99577.80
2018-12-27T02:14:36.536Z,99586.20
2018-12-27T02:17:05.110Z,99579.86
2018-12-27T02:19:33.983Z,99580.77
2018-12-27T02:22:02.651Z,99576.73
2018-12-27T02:24:31.231Z,99579.36
2018-12-27T02:26:59.803Z,99566.78
2018-12-27T02:29:28.390Z,99563.97
2018-12-27T02:31:56.960Z,99566.62
2018-12-27T02:34:25.549Z,99569.27
2018-12-27T02:36:54.113Z,99572.91
2018-12-27T02:39:22.697Z,99561.05
2018-12-27T02:41:51.261Z,99561.45
2018-12-27T02:44:20.230Z,99569.05
2018-12-27T02:46:48.807Z,99558.67
2018-12-27T02:49:17.385Z,99556.95
2018-12-27T02:51:45.946Z,99563.66
2018-12-27T02:54:14.534Z,99569.38
2018-12-27T02:56:43.099Z,99568.50
2018-12-27T02:59:13.812Z,99563.78
2018-12-27T03:01:42.402Z,99564.53
2018-12-27T03:04:10.985Z,99556.25
2018-12-27T03:06:39.576Z,99560.38
2018-12-27T03:09:08.141Z,99552.05
2018-12-27T03:11:36.813Z,99556.42
2018-12-27T03:14:05.375Z,99552.69
2018-12-27T03:16:34.023Z,99554.00
2018-12-27T03:19:02.586Z,99544.52
2018-12-27T03:21:31.175Z,99544.95
2018-12-27T03:24:00.074Z,99541.22
2018-12-27T03:26:28.670Z,99529.91
2018-12-27T03:28:57.549Z,99528.95
2018-12-27T03:31:26.642Z,99533.00
2018-12-27T03:33:55.210Z,99538.16
2018-12-27T03:36:23.793Z,99534.77
2018-12-27T03:38:52.354Z,99537.70
2018-12-27T03:41:20.938Z,99539.31
2018-12-27T03:43:49.501Z,99542.60
2018-12-27T03:46:18.087Z,99541.52
2018-12-27T03:48:46.651Z,99536.60
2018-12-27T03:51:15.240Z,99530.31
2018-12-27T03:53:43.812Z,99530.37
2018-12-27T03:56:12.560Z,99531.60
2018-12-27T03:58:41.109Z,99525.19
2018-12-27T04:01:09.769Z,99533.65
2018-12-27T04:03:38.334Z,99526.95
2018-12-27T04:06:07.003Z,99533.91
2018-12-27T04:08:35.555Z,99528.05
2018-12-27T04:11:04.157Z,99533.16
2018-12-27T04:13:32.713Z,99529.89
2018-12-27T04:16:01.414Z,99536.93
2018-12-27T04:18:29.722Z,99528.69
2018-12-27T04:20:58.054Z,99531.80
2018-12-27T04:23:26.441Z,99534.88
2018-12-27T04:25:55.142Z,99529.61
2018-12-27T04:28:23.461Z,99531.81
2018-12-27T04:30:52.331Z,99528.66
2018-12-27T04:33:21.415Z,99529.07
2018-12-27T04:35:50.094Z,99527.66
2018-12-27T04:38:18.541Z,99537.44
2018-12-27T04:40:46.799Z,99534.48
2018-12-27T04:43:15.298Z,99531.10
2018-12-27T04:45:43.616Z,99525.20
2018-12-27T04:48:11.956Z,99522.72
2018-12-27T04:50:40.271Z,99529.73
2018-12-27T04:53:08.588Z,99523.20
2018-12-27T04:55:36.919Z,99521.83
2018-12-27T04:58:05.229Z,99524.70
2018-12-27T05:00:33.566Z,99519.28
2018-12-27T05:03:01.904Z,99516.95
2018-12-27T05:05:30.217Z,99516.70
2018-12-27T05:08:00.383Z,99518.31
2018-12-27T05:10:28.882Z,99521.61
2018-12-27T05:12:57.198Z,99515.02
2018-12-27T05:15:25.529Z,99524.02
2018-12-27T05:17:53.839Z,99533.63
2018-12-27T05:20:22.184Z,99535.09
2018-12-27T05:22:50.493Z,99532.61
2018-12-27T05:25:19.041Z,99534.19
2018-12-27T05:27:47.648Z,99540.02
2018-12-27T05:30:15.978Z,99537.67
2018-12-27T05:32:44.295Z,99534.03
2018-12-27T05:35:13.002Z,99532.22
2018-12-27T05:37:41.833Z,99530.87
2018-12-27T05:40:10.239Z,99528.35
2018-12-27T05:42:38.551Z,99541.08
2018-12-27T05:45:06.938Z,99538.80
2018-12-27T05:47:35.272Z,99538.93
2018-12-27T05:50:03.924Z,99541.67
2018-12-27T05:52:32.254Z,99541.53
2018-12-27T05:55:00.680Z,99535.99
2018-12-27T05:57:29.085Z,99524.64
2018-12-27T05:59:57.405Z,99531.04
2018-12-27T06:02:26.130Z,99532.44
2018-12-27T06:04:54.810Z,99527.12
2018-12-27T06:07:23.504Z,99526.95
2018-12-27T06:09:51.837Z,99525.34
2018-12-27T06:12:20.470Z,99529.69
2018-12-27T06:14:48.805Z,99529.28
2018-12-27T06:17:17.113Z,99522.16
2018-12-27T06:19:45.627Z,99526.66
2018-12-27T06:22:13.953Z,99532.15
2018-12-27T06:24:42.289Z,99518.69
2018-12-27T06:27:10.612Z,99527.84
2018-12-27T06:29:38.921Z,99528.24
2018-12-27T06:32:07.254Z,99518.71
2018-12-27T06:34:41.398Z,99520.81
2018-12-27T06:37:05.642Z,99524.50
2018-12-27T06:39:33.958Z,99523.66
2018-12-27T06:42:02.316Z,99520.30
2018-12-27T06:44:30.649Z,99515.17
2018-12-27T06:46:59.035Z,99513.59
2018-12-27T06:49:27.372Z,99516.94
2018-12-27T06:51:55.691Z,99521.29
2018-12-27T06:54:24.497Z,99522.56
2018-12-27T06:56:52.812Z,99516.30
2018-12-27T06:59:21.141Z,99521.99
2018-12-27T07:01:49.452Z,99519.33
2018-12-27T07:04:17.858Z,99521.42
2018-12-27T07:06:46.204Z,99528.24
2018-12-27T07:09:14.884Z,99522.08
2018-12-27T07:11:43.200Z,99519.34
2018-12-27T07:14:11.530Z,99519.75
2018-12-27T07:16:39.836Z,99518.72
2018-12-27T07:19:08.517Z,99514.72
2018-12-27T07:21:37.112Z,99514.70
2018-12-27T07:24:05.519Z,99506.98
2018-12-27T07:26:33.829Z,99502.19
2018-12-27T07:29:02.158Z,99494.52
2018-12-27T07:31:30.477Z,99501.72
2018-12-27T07:33:58.807Z,99500.98
2018-12-27T07:36:27.592Z,99492.62
2018-12-27T07:38:55.924Z,99499.55
2018-12-27T07:41:24.254Z,99488.28
2018-12-27T07:43:52.593Z,99493.97
2018-12-27T07:46:20.928Z,99490.28
2018-12-27T07:48:49.251Z,99490.95
2018-12-27T07:51:17.577Z,99497.58
2018-12-27T07:53:45.887Z,99495.05
2018-12-27T07:56:14.221Z,99488.56
2018-12-27T07:58:42.633Z,99489.15
2018-12-27T08:01:10.965Z,99496.82
2018-12-27T08:03:39.279Z,99489.83
2018-12-27T08:06:07.598Z,99486.42
2018-12-27T08:08:35.974Z,99492.22
2018-12-27T08:11:04.387Z,99489.55
2018-12-27T08:13:32.818Z,99490.63
2018-12-27T08:16:01.539Z,99486.16
2018-12-27T08:18:29.866Z,99482.22
2018-12-27T08:20:58.205Z,99482.22
2018-12-27T08:23:26.536Z,99476.88
2018-12-27T08:25:54.879Z,99482.02
2018-12-27T08:28:23.483Z,99480.71
2018-12-27T08:30:51.820Z,99476.19
2018-12-27T08:33:20.140Z,99474.09
2018-12-27T08:35:48.464Z,99475.62
2018-12-27T08:38:16.783Z,99474.84
2018-12-27T08:40:45.121Z,99470.20
2018-12-27T08:43:13.437Z,99465.64
2018-12-27T08:45:41.967Z,99462.67
2018-12-27T08:48:10.298Z,99467.50
2018-12-27T08:50:38.621Z,99465.43
2018-12-27T08:53:06.954Z,99464.72
2018-12-27T08:55:35.270Z,99471.91
2018-12-27T08:58:03.613Z,99478.99
2018-12-27T09:00:32.070Z,99472.77
2018-12-27T09:03:00.381Z,99465.66
2018-12-27T09:05:28.716Z,99470.33
2018-12-27T09:07:57.046Z,99467.13
2018-12-27T09:10:25.495Z,99475.16
2018-12-27T09:12:53.811Z,99468.02
2018-12-27T09:15:22.149Z,99469.17
2018-12-27T09:17:50.465Z,99475.37
2018-12-27T09:20:19.025Z,99474.64
2018-12-27T09:22:47.349Z,99474.47
2018-12-27T09:25:15.670Z,99474.79
2018-12-27T09:27:44.022Z,99478.21
2018-12-27T09:30:12.343Z,99465.25
2018-12-27T09:32:40.681Z,99462.63
2018-12-27T09:35:09.914Z,99470.48
2018-12-27T09:37:38.279Z,99467.62
2018-12-27T09:40:06.990Z,99464.85
2018-12-27T09:42:35.324Z,99462.53
2018-12-27T09:45:04.511Z,99455.45
2018-12-27T09:47:32.849Z,99458.33
2018-12-27T09:50:01.168Z,99445.86
2018-12-27T09:52:29.509Z,99458.08
2018-12-27T09:54:57.999Z,99442.88
2018-12-27T09:57:26.314Z,99446.31
2018-12-27T09:59:54.653Z,99447.20
2018-12-27T10:02:22.981Z,99439.66
2018-12-27T10:04:51.382Z,99434.51
2018-12-27T10:07:19.696Z,99434.34
2018-12-27T10:09:48.034Z,99435.02
2018-12-27T10:12:16.349Z,99435.42
2018-12-27T10:14:44.686Z,99434.63
2018-12-27T10:17:14.051Z,99430.37
2018-12-27T10:19:42.383Z,99349.39
2018-12-27T10:22:10.706Z,99429.56
2018-12-27T10:24:39.021Z,99424.30
2018-12-27T10:27:07.358Z,99411.41
2018-12-27T10:29:35.671Z,99405.95
2018-12-27T10:32:04.006Z,99396.89
2018-12-27T10:34:32.325Z,99396.52
2018-12-27T10:37:00.666Z,99391.79
2018-12-27T10:39:28.986Z,99387.09
2018-12-27T10:41:57.329Z,99391.17
2018-12-27T10:44:25.642Z,99384.61
2018-12-27T10:46:53.966Z,99383.91
2018-12-27T10:49:23.273Z,99386.45
2018-12-27T10:51:51.763Z,99374.78
2018-12-27T10:54:20.263Z,99374.80
2018-12-27T10:56:48.934Z,99374.06
2018-12-27T10:59:17.273Z,99373.27
2018-12-27T11:01:45.936Z,99374.34
2018-12-27T11:04:14.270Z,99362.41
2018-12-27T11:06:42.909Z,99361.66
2018-12-27T11:09:11.244Z,99354.87
2018-12-27T11:11:39.871Z,99347.73
2018-12-27T11:14:08.206Z,99343.92
2018-12-27T11:16:36.522Z,99335.63
2018-12-27T11:19:05.773Z,99325.44
2018-12-27T11:21:34.082Z,99327.16
2018-12-27T11:24:02.389Z,99311.62
2018-12-27T11:26:30.735Z,99319.95
2018-12-27T11:28:59.345Z,99308.58
2018-12-27T11:31:27.885Z,99298.72
2018-12-27T11:33:56.209Z,99305.40
2018-12-27T11:36:24.541Z,99302.94
2018-12-27T11:38:52.938Z,99294.03
2018-12-27T11:41:21.524Z,99295.41
2018-12-27T11:43:50.170Z,99293.41
2018-12-27T11:46:18.481Z,99289.59
2018-12-27T11:48:46.815Z,99279.03
2018-12-27T11:51:15.136Z,99277.34
2018-12-27T11:53:43.474Z,99276.74
2018-12-27T11:56:11.785Z,99272.98
2018-12-27T11:58:40.196Z,99275.78
2018-12-27T12:01:08.573Z,99280.13
2018-12-27T12:03:37.125Z,99277.43
2018-12-27T12:06:05.802Z,99278.48
2018-12-27T12:08:34.137Z,99272.05
2018-12-27T12:11:02.564Z,99269.22
2018-12-27T12:13:30.975Z,99254.89
2018-12-27T12:15:59.290Z,99263.06
2018-12-27T12:18:27.623Z,99257.47
2018-12-27T12:20:55.949Z,99254.05
2018-12-27T12:23:24.256Z,99258.75
2018-12-27T12:25:52.607Z,99250.28
2018-12-27T12:28:20.997Z,99240.21
2018-12-27T12:30:49.335Z,99256.41
2018-12-27T12:33:17.713Z,99252.72
2018-12-27T12:35:46.385Z,99249.00
2018-12-27T12:38:14.974Z,99249.47
2018-12-27T12:40:43.304Z,99251.89
2018-12-27T12:43:11.626Z,99249.13
2018-12-27T12:45:39.947Z,99239.33
2018-12-27T12:48:08.277Z,99234.98
2018-12-27T12:50:36.594Z,99231.52
2018-12-27T12:53:05.073Z,99219.96
2018-12-27T12:55:33.741Z,99225.27
2018-12-27T12:58:02.151Z,99217.16
2018-12-27T13:00:30.919Z,99210.17
2018-12-27T13:02:59.327Z,99210.07
2018-12-27T13:05:27.644Z,99210.20
2018-12-27T13:07:55.965Z,99211.80
2018-12-27T13:10:24.301Z,99213.82
2018-12-27T13:12:52.931Z,99218.05
2018-12-27T13:15:21.721Z,99216.45
2018-12-27T13:17:50.037Z,99224.73
2018-12-27T13:20:18.380Z,99214.68
2018-12-27T13:22:46.700Z,99221.94
2018-12-27T13:25:15.033Z,99222.21
2018-12-27T13:27:43.357Z,99215.08
2018-12-27T13:30:12.027Z,99211.31
2018-12-27T13:32:40.390Z,99200.97
2018-12-27T13:35:08.887Z,99208.80
2018-12-27T13:37:37.219Z,99202.50
2018-12-27T13:40:07.176Z,99201.79
2018-12-27T13:42:35.618Z,99191.52
2018-12-27T13:45:06.311Z,99185.41
2018-12-27T13:47:34.997Z,99188.10
2018-12-27T13:50:03.792Z,99188.77
2018-12-27T13:52:32.567Z,99183.67
2018-12-27T13:55:00.883Z,99178.81
2018-12-27T13:57:29.281Z,99176.97
2018-12-27T13:59:57.615Z,99178.28
2018-12-27T14:02:25.933Z,99159.28
2018-12-27T14:04:54.273Z,99163.44
2018-12-27T14:07:22.587Z,99159.38
2018-12-27T14:09:50.911Z,99155.57
2018-12-27T14:12:19.251Z,99156.41
2018-12-27T14:14:47.899Z,99155.90
2018-12-27T14:17:16.238Z,99166.59
2018-12-27T14:19:44.636Z,99168.88
2018-12-27T14:22:12.985Z,99167.58
2018-12-27T14:24:41.302Z,99173.88
2018-12-27T14:27:09.925Z,99167.08
2018-12-27T14:29:38.241Z,99164.06
2018-12-27T14:32:06.567Z,99162.78
2018-12-27T14:34:34.898Z,99168.25
2018-12-27T14:37:03.230Z,99171.34
2018-12-27T14:39:31.637Z,99161.38
2018-12-27T14:42:00.236Z,99154.51
2018-12-27T14:44:28.550Z,99153.72
2018-12-27T14:46:56.888Z,99152.57
2018-12-27T14:49:25.275Z,99155.03
2018-12-27T14:51:53.606Z,99147.14
2018-12-27T14:54:22.310Z,99156.03
2018-12-27T14:56:50.646Z,99156.09
2018-12-27T14:59:19.026Z,99150.55
2018-12-27T15:01:47.360Z,99153.05
2018-12-27T15:04:15.678Z,99151.55
2018-12-27T15:06:47.844Z,99152.42
2018-12-27T15:09:14.457Z,99152.88
2018-12-27T15:11:42.947Z,99152.19
2018-12-27T15:14:11.291Z,99153.32
2018-12-27T15:16:39.636Z,99150.14
2018-12-27T15:19:08.029Z,99149.78
2018-12-27T15:21:36.345Z,99148.77
2018-12-27T15:24:04.692Z,99146.58
2018-12-27T15:26:33.014Z,99148.82
2018-12-27T15:29:01.354Z,99153.59
2018-12-27T15:31:29.670Z,99165.53
2018-12-27T15:33:58.006Z,99167.69
2018-12-27T15:36:26.315Z,99166.41
2018-12-27T15:38:54.664Z,99172.27
2018-12-27T15:41:23.301Z,99173.67
2018-12-27T15:43:51.687Z,99174.07
2018-12-27T15:46:20.027Z,99174.08
2018-12-27T15:48:48.411Z,99167.72
2018-12-27T15:51:16.767Z,99168.59
2018-12-27T15:53:45.091Z,99167.84
2018-12-27T15:56:13.796Z,99171.44
2018-12-27T15:58:42.112Z,99178.44
2018-12-27T16:01:10.449Z,99171.84
2018-12-27T16:03:39.151Z,99174.98
2018-12-27T16:06:07.482Z,99168.75
2018-12-27T16:08:35.795Z,99167.47
2018-12-27T16:11:04.130Z,99167.77
2018-12-27T16:13:32.451Z,99166.79
2018-12-27T16:16:00.764Z,99161.73
2018-12-27T16:18:29.097Z,99158.53
2018-12-27T16:20:57.419Z,99166.80
2018-12-27T16:23:25.777Z,99161.31
2018-12-27T16:25:54.482Z,99160.51
2018-12-27T16:28:22.806Z,99158.24
2018-12-27T16:30:51.147Z,99156.32
2018-12-27T16:33:19.837Z,99159.41
2018-12-27T16:35:48.163Z,99155.70
2018-12-27T16:38:16.627Z,99154.70
2018-12-27T16:40:44.944Z,99160.95
2018-12-27T16:43:13.475Z,99158.79
2018-12-27T16:45:41.860Z,99160.06
2018-12-27T16:48:10.209Z,99154.41
2018-12-27T16:50:38.521Z,99159.94
2018-12-27T16:53:06.870Z,99162.75
2018-12-27T16:55:35.200Z,99173.53
2018-12-27T16:58:03.535Z,99169.92
2018-12-27T17:00:31.918Z,99171.38
2018-12-27T17:03:01.201Z,99175.98
2018-12-27T17:05:29.515Z,99178.50
2018-12-27T17:07:58.301Z,99169.41
2018-12-27T17:10:26.692Z,99173.04
2018-12-27T17:12:55.000Z,99161.70
2018-12-27T17:15:23.349Z,99161.67
2018-12-27T17:17:51.668Z,99155.50
2018-12-27T17:20:20.002Z,99156.11
2018-12-27T17:22:48.320Z,99152.47
2018-12-27T17:25:16.662Z,99156.88
2018-12-27T17:27:44.985Z,99155.92
2018-12-27T17:30:13.327Z,99159.74
2018-12-27T17:32:41.645Z,99155.63
2018-12-27T17:35:09.973Z,99159.58
2018-12-27T17:37:38.305Z,99160.81
2018-12-27T17:40:07.095Z,99149.20
2018-12-27T17:42:35.430Z,99154.49
2018-12-27T17:45:03.813Z,99153.79
2018-12-27T17:47:32.217Z,99155.11
2018-12-27T17:50:00.543Z,99152.17
2018-12-27T17:52:30.343Z,99156.41
2018-12-27T17:54:59.307Z,99154.88
2018-12-27T17:57:27.649Z,99154.49
2018-12-27T17:59:56.472Z,99149.75
2018-12-27T18:02:24.806Z,99156.12
2018-12-27T18:04:53.206Z,99157.88
2018-12-27T18:07:21.595Z,99161.80
2018-12-27T18:09:49.927Z,99171.28
2018-12-27T18:12:18.242Z,99169.70
2018-12-27T18:14:47.177Z,99169.85
2018-12-27T18:17:15.639Z,99168.95
2018-12-27T18:19:43.976Z,99170.47
2018-12-27T18:22:12.624Z,99172.38
2018-12-27T18:24:40.938Z,99172.23
2018-12-27T18:27:09.272Z,99168.67
2018-12-27T18:29:37.604Z,99164.31
2018-12-27T18:32:06.082Z,99169.70
2018-12-27T18:34:34.396Z,99168.94
2018-12-27T18:37:02.841Z,99169.68
2018-12-27T18:39:31.165Z,99166.31
2018-12-27T18:41:59.506Z,99163.89
2018-12-27T18:44:27.958Z,99175.56
2018-12-27T18:46:56.302Z,99180.63
2018-12-27T18:49:24.958Z,99179.01
2018-12-27T18:51:53.274Z,99176.83
2018-12-27T18:54:21.690Z,99173.95
2018-12-27T18:56:50.080Z,99170.35
2018-12-27T18:59:18.396Z,99178.76
2018-12-27T19:01:46.818Z,99182.12
2018-12-27T19:04:15.137Z,99182.92
2018-12-27T19:06:43.693Z,99178.25
2018-12-27T19:09:12.015Z,99180.92
2018-12-27T19:12:17.053Z,99184.89
2018-12-27T19:14:45.367Z,99181.75
2018-12-27T19:17:19.787Z,99182.08
2018-12-27T19:19:48.125Z,99190.16
2018-12-27T19:22:19.172Z,99180.92
2018-12-27T19:24:47.504Z,99179.84
2018-12-27T19:27:15.820Z,99183.76
2018-12-27T19:29:44.146Z,99183.42
2018-12-27T19:32:12.478Z,99178.82
2018-12-27T19:34:40.821Z,99185.27
2018-12-27T19:37:09.212Z,99186.02
2018-12-27T19:39:37.837Z,99184.83
2018-12-27T19:42:06.155Z,99185.48
2018-12-27T19:44:34.666Z,99184.55
2018-12-27T19:47:03.281Z,99178.16
2018-12-27T19:49:31.617Z,99185.86
2018-12-27T19:52:00.049Z,99183.90
2018-12-27T19:54:32.031Z,99185.78
2018-12-27T19:56:58.779Z,99179.37
2018-12-27T19:59:27.160Z,99178.05
2018-12-27T20:01:56.806Z,99182.80
2018-12-27T20:04:25.543Z,99186.80
2018-12-27T20:06:53.912Z,99181.95
2018-12-27T20:09:22.742Z,99184.73
2018-12-27T20:11:51.131Z,99179.36
2018-12-27T20:14:19.653Z,99187.25
2018-12-27T20:16:48.054Z,99183.22
2018-12-27T20:19:16.365Z,99185.27
2018-12-27T20:21:44.769Z,99191.27
2018-12-27T20:24:13.173Z,99190.19
2018-12-27T20:26:41.482Z,99193.02
2018-12-27T20:29:09.811Z,99192.13
2018-12-27T20:31:38.193Z,99191.73
2018-12-27T20:34:06.552Z,99194.28
2018-12-27T20:36:34.881Z,99181.71
2018-12-27T20:39:04.293Z,99187.47
2018-12-27T20:41:33.004Z,99190.08
2018-12-27T20:44:01.332Z,99189.73
2018-12-27T20:46:29.746Z,99194.70
2018-12-27T20:48:58.107Z,99192.14
2018-12-27T20:51:26.439Z,99194.48
2018-12-27T20:53:55.104Z,99194.48
2018-12-27T20:56:23.452Z,99184.96
2018-12-27T20:58:51.836Z,99186.31
2018-12-27T21:01:20.153Z,99181.52
2018-12-27T21:03:48.494Z,99181.35
2018-12-27T21:06:16.827Z,99173.38
2018-12-27T21:08:45.183Z,99174.52
2018-12-27T21:11:13.533Z,99171.53
2018-12-27T21:13:41.935Z,99164.49
2018-12-27T21:16:10.246Z,99164.49
2018-12-27T21:18:38.568Z,99178.33
2018-12-27T21:21:06.982Z,99185.27
2018-12-27T21:23:35.298Z,99176.62
2018-12-27T21:26:04.112Z,99178.03
2018-12-27T21:28:32.784Z,99177.33
2018-12-27T21:31:01.440Z,99179.69
2018-12-27T21:33:29.776Z,99181.05
2018-12-27T21:35:58.090Z,99182.70
2018-12-27T21:38:26.410Z,99183.20
2018-12-27T21:40:54.746Z,99176.39
2018-12-27T21:43:23.064Z,99171.31
2018-12-27T21:45:51.386Z,99170.23
2018-12-27T21:48:20.018Z,99176.51
2018-12-27T21:50:48.507Z,99176.51
2018-12-27T21:53:16.864Z,99174.61
2018-12-27T21:55:45.177Z,99175.12
2018-12-27T21:58:13.518Z,99169.89
2018-12-27T22:00:41.840Z,99172.45
2018-12-27T22:03:10.251Z,99176.91
2018-12-27T22:05:38.567Z,99166.66
2018-12-27T22:08:06.908Z,99170.04
2018-12-27T22:10:36.117Z,99173.45
2018-12-27T22:13:04.582Z,99169.17
2018-12-27T22:15:32.891Z,99166.50
2018-12-27T22:18:01.225Z,99165.98
2018-12-27T22:20:29.536Z,99164.75
2018-12-27T22:22:57.855Z,99163.56
2018-12-27T22:25:26.215Z,99153.42
2018-12-27T22:27:54.846Z,99159.59
2018-12-27T22:30:23.179Z,99157.11
2018-12-27T22:32:51.608Z,99158.57
2018-12-27T22:35:19.959Z,99159.04
2018-12-27T22:37:48.379Z,99153.80
2018-12-27T22:40:16.702Z,99154.02
2018-12-27T22:42:45.045Z,99162.39
2018-12-27T22:45:13.377Z,99156.58
2018-12-27T22:47:41.698Z,99152.73
2018-12-27T22:50:10.014Z,99151.26
2018-12-27T22:52:38.360Z,99147.23
2018-12-27T22:55:07.036Z,99146.69
2018-12-27T22:57:35.373Z,99140.37
2018-12-27T23:00:05.416Z,99144.52
2018-12-27T23:02:34.128Z,99144.83
2018-12-27T23:05:02.814Z,99144.61
2018-12-27T23:07:31.200Z,99139.92
2018-12-27T23:09:59.538Z,99147.68
2018-12-27T23:12:27.870Z,99150.56
2018-12-27T23:14:56.544Z,99146.91
2018-12-27T23:17:24.918Z,99151.86
2018-12-27T23:19:53.239Z,99150.69
2018-12-27T23:22:21.575Z,99148.64
2018-12-27T23:24:49.893Z,99139.98
2018-12-27T23:27:18.662Z,99150.73
2018-12-27T23:29:47.004Z,99147.92
2018-12-27T23:32:15.317Z,99135.77
2018-12-27T23:34:44.004Z,99137.70
2018-12-27T23:37:12.318Z,99141.02
2018-12-27T23:39:40.869Z,99143.72
2018-12-27T23:42:09.185Z,99145.25
2018-12-27T23:44:37.501Z,99140.86
2018-12-27T23:47:05.832Z,99141.99
2018-12-27T23:49:34.500Z,99138.15
2018-12-27T23:52:02.845Z,99140.28
2018-12-27T23:54:31.574Z,99139.95
2018-12-27T23:56:59.989Z,99149.27
2018-12-27T23:59:28.318Z,99134.96
